TAF BGGH 230758Z 2307/2315 16035G48KT 6000 -RA BKN050
TEMPO 2307/2315 2000 RA BKN018
From batch tds/tafs/production/2022/9/23/h07_m59_tafs.cache.xml
Issued (9 days ago)
Forecasts
2307/2315 16035G48KT BKN5000

---
wx_string: "-RA"
fcst_time_to: '2022-09-23T15:00:00Z'
wind_gust_kt: '48'
sky_condition:
- sky_cover: BKN
  cloud_base_ft_agl: '5000'
wind_speed_kt: '35'
fcst_time_from: '2022-09-23T07:00:00Z'
wind_dir_degrees: '160'
visibility_statute_mi: '3.73'

TEMPO 2307/2315 BKN1800

---
wx_string: RA
fcst_time_to: '2022-09-23T15:00:00Z'
sky_condition:
- sky_cover: BKN
  cloud_base_ft_agl: '1800'
fcst_time_from: '2022-09-23T07:00:00Z'
change_indicator: TEMPO
visibility_statute_mi: '1.24'

talk